createdAt,value
2023-10-26T00:00:48.615Z,95359.63
2023-10-26T00:01:50.642Z,95368.25
2023-10-26T00:02:53.583Z,95367.22
2023-10-26T00:03:55.789Z,95363.34
2023-10-26T00:04:57.795Z,95374.09
2023-10-26T00:05:59.778Z,95367.59
2023-10-26T00:07:02.542Z,95381.41
2023-10-26T00:08:04.688Z,95379.63
2023-10-26T00:09:06.734Z,95378.59
2023-10-26T00:10:09.196Z,95374.97
2023-10-26T00:11:11.166Z,95373.91
2023-10-26T00:12:13.181Z,95377.06
2023-10-26T00:13:15.158Z,95365.34
2023-10-26T00:14:17.606Z,95361.72
2023-10-26T00:15:19.607Z,95363.56
2023-10-26T00:16:21.800Z,95371.38
2023-10-26T00:17:23.919Z,95370.34
2023-10-26T00:18:26.046Z,95374.53
2023-10-26T00:19:28.530Z,95376.09
2023-10-26T00:20:30.639Z,95373.25
2023-10-26T00:21:32.517Z,95362.59
2023-10-26T00:22:34.632Z,95371.44
2023-10-26T00:23:36.580Z,95376.66
2023-10-26T00:24:39.110Z,95369.63
2023-10-26T00:25:41.179Z,95378.00
2023-10-26T00:26:43.694Z,95379.03
2023-10-26T00:27:45.929Z,95379.81
2023-10-26T00:28:47.894Z,95375.63
2023-10-26T00:29:49.916Z,95386.84
2023-10-26T00:30:51.944Z,95385.03
2023-10-26T00:31:53.936Z,95389.22
2023-10-26T00:32:56.310Z,95392.84
2023-10-26T00:33:58.676Z,95393.91
2023-10-26T00:35:00.764Z,95392.84
2023-10-26T00:36:03.140Z,95384.00
2023-10-26T00:37:05.004Z,95386.38
2023-10-26T00:38:06.908Z,95392.16
2023-10-26T00:39:08.855Z,95384.06
2023-10-26T00:40:11.409Z,95393.50
2023-10-26T00:41:13.344Z,95397.66
2023-10-26T00:42:15.378Z,95395.88
2023-10-26T00:43:28.448Z,95401.88
2023-10-26T00:44:30.345Z,95401.63
2023-10-26T00:45:34.974Z,95401.38
2023-10-26T00:46:36.957Z,95395.38
2023-10-26T00:47:39.510Z,95398.22
2023-10-26T00:48:42.016Z,95394.56
2023-10-26T00:49:44.332Z,95395.91
2023-10-26T00:50:47.282Z,95397.50
2023-10-26T00:52:00.829Z,95388.38
2023-10-26T00:53:02.923Z,95386.34
2023-10-26T00:54:05.862Z,95390.78
2023-10-26T00:55:09.200Z,95390.47
2023-10-26T00:56:13.518Z,95387.84
2023-10-26T00:57:19.606Z,95381.56
2023-10-26T00:58:23.720Z,95388.38
2023-10-26T00:59:28.965Z,95384.72
2023-10-26T01:00:32.197Z,95387.88
2023-10-26T01:01:36.189Z,95387.34
2023-10-26T01:02:39.184Z,95384.19
2023-10-26T01:03:42.603Z,95389.66
2023-10-26T01:04:45.020Z,95379.22
2023-10-26T01:05:47.541Z,95386.25
2023-10-26T01:06:49.574Z,95393.63
2023-10-26T01:07:51.541Z,95389.41
2023-10-26T01:08:54.381Z,95392.28
2023-10-26T01:09:57.995Z,95392.53
2023-10-26T01:11:00.060Z,95391.97
2023-10-26T01:12:02.873Z,95394.56
2023-10-26T01:13:05.934Z,95384.69
2023-10-26T01:14:09.477Z,95385.47
2023-10-26T01:15:12.736Z,95387.84
2023-10-26T01:16:15.230Z,95386.78
2023-10-26T01:17:17.229Z,95374.78
2023-10-26T01:18:19.232Z,95367.97
2023-10-26T01:19:21.506Z,95376.84
2023-10-26T01:20:23.618Z,95374.25
2023-10-26T01:21:33.334Z,95384.69
2023-10-26T01:22:35.733Z,95370.03
2023-10-26T01:23:37.520Z,95357.81
2023-10-26T01:24:39.780Z,95351.53
2023-10-26T01:25:41.896Z,95346.09
2023-10-26T01:26:43.861Z,95351.84
2023-10-26T01:27:45.797Z,95354.22
2023-10-26T01:28:47.722Z,95340.38
2023-10-26T01:29:49.793Z,95335.94
2023-10-26T01:30:51.852Z,95340.13
2023-10-26T01:31:53.716Z,95332.84
2023-10-26T01:32:55.763Z,95327.84
2023-10-26T01:33:57.793Z,95327.31
2023-10-26T01:35:00.374Z,95327.31
2023-10-26T01:36:02.395Z,95328.34
2023-10-26T01:37:05.918Z,95327.31
2023-10-26T01:38:08.330Z,95329.38
2023-10-26T01:39:10.464Z,95329.34
2023-10-26T01:40:12.763Z,95328.56
2023-10-26T01:41:14.729Z,95334.00
2023-10-26T01:42:16.690Z,95338.69
2023-10-26T01:43:18.718Z,95327.19
2023-10-26T01:44:20.726Z,95317.25
2023-10-26T01:45:22.737Z,95324.03
2023-10-26T01:46:24.756Z,95317.56
2023-10-26T01:47:26.782Z,95315.00
2023-10-26T01:48:29.075Z,95313.66
2023-10-26T01:49:31.025Z,95321.50
2023-10-26T01:50:33.693Z,95322.81
2023-10-26T01:51:36.364Z,95317.13
2023-10-26T01:52:38.542Z,95317.91
2023-10-26T01:53:41.819Z,95314.22
2023-10-26T01:54:43.971Z,95315.19
2023-10-26T01:55:46.276Z,95315.66
2023-10-26T01:56:49.112Z,95312.03
2023-10-26T01:57:51.733Z,95305.53
2023-10-26T01:58:53.774Z,95306.81
2023-10-26T01:59:57.476Z,95314.03
2023-10-26T02:00:59.377Z,95307.78
2023-10-26T02:02:02.170Z,95309.13
2023-10-26T02:03:04.287Z,95304.94
2023-10-26T02:04:06.645Z,95302.63
2023-10-26T02:05:09.440Z,95306.31
2023-10-26T02:06:11.818Z,95305.84
2023-10-26T02:07:14.025Z,95317.38
2023-10-26T02:08:16.433Z,95311.91
2023-10-26T02:09:18.232Z,95310.09
2023-10-26T02:10:20.923Z,95307.72
2023-10-26T02:11:22.969Z,95309.00
2023-10-26T02:12:24.964Z,95306.16
2023-10-26T02:13:26.937Z,95313.47
2023-10-26T02:14:28.910Z,95310.41
2023-10-26T02:15:30.859Z,95317.69
2023-10-26T02:16:32.850Z,95316.31
2023-10-26T02:17:34.783Z,95308.75
2023-10-26T02:18:36.928Z,95308.50
2023-10-26T02:19:39.165Z,95315.06
2023-10-26T02:20:41.231Z,95328.41
2023-10-26T02:21:43.684Z,95326.59
2023-10-26T02:22:45.448Z,95318.50
2023-10-26T02:23:47.398Z,95318.25
2023-10-26T02:24:49.427Z,95325.06
2023-10-26T02:25:51.371Z,95326.63
2023-10-26T02:26:53.411Z,95327.94
2023-10-26T02:27:55.384Z,95321.13
2023-10-26T02:28:57.303Z,95322.94
2023-10-26T02:29:59.619Z,95316.69
2023-10-26T02:31:01.976Z,95328.72
2023-10-26T02:32:05.345Z,95321.94
2023-10-26T02:33:07.287Z,95325.06
2023-10-26T02:34:09.363Z,95326.09
2023-10-26T02:35:11.445Z,95312.03
2023-10-26T02:36:13.320Z,95317.78
2023-10-26T02:37:15.337Z,95317.00
2023-10-26T02:39:36.884Z,95321.19
2023-10-26T02:40:39.284Z,95318.56
2023-10-26T02:41:41.588Z,95327.19
2023-10-26T02:42:43.549Z,95313.34
2023-10-26T02:43:46.125Z,95314.94
2023-10-26T02:44:48.107Z,95308.63
2023-10-26T02:45:50.158Z,95313.84
2023-10-26T02:46:52.189Z,95317.56
2023-10-26T02:47:54.172Z,95313.66
2023-10-26T02:48:59.112Z,95317.06
2023-10-26T02:50:01.189Z,95321.72
2023-10-26T02:51:04.764Z,95312.03
2023-10-26T02:52:06.887Z,95315.97
2023-10-26T02:53:08.838Z,95320.16
2023-10-26T02:54:10.825Z,95320.16
2023-10-26T02:55:12.745Z,95320.41
2023-10-26T02:56:14.773Z,95310.97
2023-10-26T02:57:16.987Z,95326.09
2023-10-26T02:58:19.353Z,95335.22
2023-10-26T02:59:21.226Z,95331.31
2023-10-26T03:00:23.105Z,95327.69
2023-10-26T03:01:25.175Z,95331.09
2023-10-26T03:02:27.152Z,95329.53
2023-10-26T03:03:29.365Z,95328.22
2023-10-26T03:04:32.905Z,95332.41
2023-10-26T03:05:34.925Z,95334.25
2023-10-26T03:06:40.816Z,95336.31
2023-10-26T03:07:46.665Z,95336.84
2023-10-26T03:08:48.658Z,95329.78
2023-10-26T03:09:52.029Z,95323.78
2023-10-26T03:10:54.237Z,95324.56
2023-10-26T03:11:56.694Z,95329.56
2023-10-26T03:12:59.290Z,95330.88
2023-10-26T03:14:01.193Z,95329.31
2023-10-26T03:15:03.936Z,95333.25
2023-10-26T03:16:07.827Z,95327.78
2023-10-26T03:17:11.114Z,95324.94
2023-10-26T03:18:13.184Z,95324.41
2023-10-26T03:19:15.441Z,95325.19
2023-10-26T03:20:17.443Z,95329.63
2023-10-26T03:21:21.812Z,95326.75
2023-10-26T03:22:23.855Z,95336.66
2023-10-26T03:23:25.849Z,95323.88
2023-10-26T03:24:27.922Z,95327.44
2023-10-26T03:25:29.979Z,95320.41
2023-10-26T03:26:32.257Z,95331.38
2023-10-26T03:27:34.446Z,95328.47
2023-10-26T03:28:36.257Z,95322.22
2023-10-26T03:29:38.235Z,95322.78
2023-10-26T03:30:40.134Z,95331.69
2023-10-26T03:31:42.921Z,95328.03
2023-10-26T03:32:45.887Z,95334.34
2023-10-26T03:33:48.020Z,95333.31
2023-10-26T03:34:50.344Z,95328.66
2023-10-26T03:35:52.295Z,95339.09
2023-10-26T03:36:54.203Z,95333.88
2023-10-26T03:37:56.205Z,95324.22
2023-10-26T03:38:58.172Z,95325.78
2023-10-26T03:40:00.100Z,95327.06
2023-10-26T03:41:02.116Z,95331.72
2023-10-26T03:42:04.217Z,95321.78
2023-10-26T03:43:06.205Z,95325.44
2023-10-26T03:44:09.668Z,95317.59
2023-10-26T03:45:12.400Z,95329.13
2023-10-26T03:46:14.825Z,95323.91
2023-10-26T03:47:19.075Z,95315.06
2023-10-26T03:48:21.009Z,95312.44
2023-10-26T03:49:23.227Z,95316.31
2023-10-26T03:50:25.220Z,95321.25
2023-10-26T03:51:27.589Z,95324.34
2023-10-26T03:52:29.300Z,95317.81
2023-10-26T03:53:31.731Z,95319.19
2023-10-26T03:54:34.130Z,95318.13
2023-10-26T03:55:36.379Z,95310.31
2023-10-26T03:56:38.330Z,95315.75
2023-10-26T03:57:40.763Z,95315.75
2023-10-26T03:58:43.053Z,95312.34
2023-10-26T03:59:45.041Z,95314.94
2023-10-26T04:00:49.023Z,95322.28
2023-10-26T04:01:51.301Z,95326.47
2023-10-26T04:02:53.106Z,95324.41
2023-10-26T04:03:55.124Z,95323.34
2023-10-26T04:04:56.989Z,95325.19
2023-10-26T04:05:58.945Z,95315.53
2023-10-26T04:07:00.969Z,95313.16
2023-10-26T04:08:04.804Z,95310.81
2023-10-26T04:09:06.764Z,95300.84
2023-10-26T04:10:09.578Z,95314.44
2023-10-26T04:11:18.777Z,95314.44
2023-10-26T04:12:20.812Z,95320.19
2023-10-26T04:13:22.773Z,95315.53
2023-10-26T04:14:24.748Z,95307.69
2023-10-26T04:15:26.768Z,95311.91
2023-10-26T04:16:29.457Z,95304.97
2023-10-26T04:17:31.959Z,95298.72
2023-10-26T04:18:34.040Z,95299.28
2023-10-26T04:19:36.057Z,95302.97
2023-10-26T04:20:37.909Z,95305.06
2023-10-26T04:21:39.845Z,95299.38
2023-10-26T04:22:41.749Z,95305.88
2023-10-26T04:23:43.829Z,95308.44
2023-10-26T04:24:46.014Z,95307.66
2023-10-26T04:25:53.829Z,95298.22
2023-10-26T04:26:56.758Z,95297.22
2023-10-26T04:27:58.500Z,95304.53
2023-10-26T04:29:00.549Z,95299.84
2023-10-26T04:30:02.972Z,95300.41
2023-10-26T04:31:05.743Z,95299.38
2023-10-26T04:32:09.236Z,95300.94
2023-10-26T04:33:11.250Z,95297.31
2023-10-26T04:34:13.547Z,95295.72
2023-10-26T04:35:15.864Z,95288.94
2023-10-26T04:36:17.981Z,95288.94
2023-10-26T04:37:19.929Z,95281.66
2023-10-26T04:38:21.825Z,95287.88
2023-10-26T04:39:23.746Z,95290.50
2023-10-26T04:40:25.662Z,95287.84
2023-10-26T04:41:27.600Z,95288.41
2023-10-26T04:42:29.586Z,95286.81
2023-10-26T04:43:31.609Z,95285.19
2023-10-26T04:44:33.987Z,95294.53
2023-10-26T04:45:36.207Z,95292.16
2023-10-26T04:46:38.139Z,95296.13
2023-10-26T04:47:40.622Z,95290.41
2023-10-26T04:48:42.624Z,95292.78
2023-10-26T04:49:44.635Z,95290.41
2023-10-26T04:50:48.340Z,95289.09
2023-10-26T04:51:50.441Z,95290.69
2023-10-26T04:52:53.049Z,95289.41
2023-10-26T04:53:55.111Z,95286.56
2023-10-26T04:54:57.091Z,95286.31
2023-10-26T04:55:59.092Z,95294.94
2023-10-26T04:57:01.027Z,95287.09
2023-10-26T04:58:04.370Z,95289.97
2023-10-26T04:59:06.582Z,95286.69
2023-10-26T05:00:11.813Z,95280.94
2023-10-26T05:01:14.209Z,95276.75
2023-10-26T05:02:15.863Z,95277.31
2023-10-26T05:03:17.854Z,95272.63
2023-10-26T05:04:19.765Z,95276.81
2023-10-26T05:05:21.685Z,95274.97
2023-10-26T05:06:23.665Z,95278.41
2023-10-26T05:07:25.613Z,95283.31
2023-10-26T05:08:27.982Z,95288.69
2023-10-26T05:09:30.601Z,95284.97
2023-10-26T05:10:32.563Z,95291.47
2023-10-26T05:11:34.687Z,95299.03
2023-10-26T05:12:36.635Z,95296.69
2023-10-26T05:13:38.884Z,95302.63
2023-10-26T05:14:40.898Z,95300.31
2023-10-26T05:15:45.539Z,95296.19
2023-10-26T05:16:47.854Z,95301.72
2023-10-26T05:17:49.697Z,95298.59
2023-10-26T05:18:51.859Z,95293.91
2023-10-26T05:19:53.853Z,95296.06
2023-10-26T05:20:56.666Z,95295.81
2023-10-26T05:21:59.301Z,95296.38
2023-10-26T05:23:03.751Z,95296.59
2023-10-26T05:24:06.476Z,95298.97
2023-10-26T05:25:11.941Z,95294.53
2023-10-26T05:26:13.880Z,95289.00
2023-10-26T05:27:16.999Z,95290.28
2023-10-26T05:28:19.065Z,95290.28
2023-10-26T05:29:21.109Z,95291.06
2023-10-26T05:30:23.654Z,95299.69
2023-10-26T05:31:25.653Z,95297.88
2023-10-26T05:32:28.414Z,95304.91
2023-10-26T05:33:32.018Z,95298.13
2023-10-26T05:34:35.007Z,95300.72
2023-10-26T05:35:37.065Z,95300.72
2023-10-26T05:36:39.112Z,95291.84
2023-10-26T05:37:41.093Z,95297.88
2023-10-26T05:38:44.522Z,95299.69
2023-10-26T05:39:48.720Z,95295.50
2023-10-26T05:40:55.561Z,95299.13
2023-10-26T05:41:57.578Z,95300.72
2023-10-26T05:42:59.728Z,95297.88
2023-10-26T05:44:01.695Z,95298.66
2023-10-26T05:45:04.184Z,95302.28
2023-10-26T05:46:06.568Z,95296.06
2023-10-26T05:47:08.320Z,95308.06
2023-10-26T05:48:11.826Z,95306.19
2023-10-26T05:49:14.023Z,95302.25
2023-10-26T05:50:16.041Z,95299.56
2023-10-26T05:51:18.336Z,95285.75
2023-10-26T05:52:20.571Z,95291.75
2023-10-26T05:53:22.538Z,95284.47
2023-10-26T05:54:24.545Z,95286.06
2023-10-26T05:55:26.724Z,95288.44
2023-10-26T05:56:28.937Z,95284.22
2023-10-26T05:57:30.944Z,95294.13
2023-10-26T05:58:33.032Z,95294.13
2023-10-26T05:59:35.056Z,95294.91
2023-10-26T06:00:37.241Z,95292.84
2023-10-26T06:01:39.300Z,95297.28
2023-10-26T06:02:41.223Z,95297.50
2023-10-26T06:03:43.306Z,95295.94
2023-10-26T06:04:45.526Z,95300.63
2023-10-26T06:05:48.903Z,95298.00
2023-10-26T06:06:50.903Z,95294.34
2023-10-26T06:07:52.895Z,95296.72
2023-10-26T06:08:54.831Z,95300.13
2023-10-26T06:09:56.800Z,95296.72
2023-10-26T06:10:59.602Z,95297.50
2023-10-26T06:12:01.595Z,95298.56
2023-10-26T06:13:04.084Z,95293.34
2023-10-26T06:14:06.095Z,95297.78
2023-10-26T06:15:08.353Z,95301.16
2023-10-26T06:16:14.417Z,95301.16
2023-10-26T06:17:17.049Z,95309.97
2023-10-26T06:18:19.127Z,95310.75
2023-10-26T06:19:21.133Z,95311.81
2023-10-26T06:20:29.376Z,95313.91
2023-10-26T06:21:31.661Z,95313.91
2023-10-26T06:22:33.662Z,95316.22
2023-10-26T06:23:36.855Z,95313.31
2023-10-26T06:24:38.933Z,95313.78
2023-10-26T06:25:40.994Z,95311.69
2023-10-26T06:26:43.010Z,95313.97
2023-10-26T06:27:44.996Z,95318.88
2023-10-26T06:28:49.806Z,95315.66
2023-10-26T06:29:55.004Z,95319.22
2023-10-26T06:31:08.609Z,95321.59
2023-10-26T06:32:11.816Z,95315.66
2023-10-26T06:33:14.581Z,95309.41
2023-10-26T06:34:16.568Z,95312.34
2023-10-26T06:35:18.830Z,95306.88
2023-10-26T06:36:20.879Z,95307.38
2023-10-26T06:37:22.952Z,95307.66
2023-10-26T06:38:25.084Z,95309.22
2023-10-26T06:39:27.178Z,95318.34
2023-10-26T06:40:29.172Z,95312.56
2023-10-26T06:41:32.296Z,95318.22
2023-10-26T06:42:35.102Z,95315.09
2023-10-26T06:43:40.640Z,95314.88
2023-10-26T06:44:42.915Z,95319.84
2023-10-26T06:45:45.971Z,95321.97
2023-10-26T06:46:47.950Z,95317.78
2023-10-26T06:47:50.031Z,95317.56
2023-10-26T06:48:52.045Z,95318.38
2023-10-26T06:49:54.106Z,95321.31
2023-10-26T06:51:01.099Z,95325.28
2023-10-26T06:52:04.022Z,95324.00
2023-10-26T06:53:06.012Z,95323.75
2023-10-26T06:54:08.062Z,95326.84
2023-10-26T06:55:30.438Z,95326.06
2023-10-26T06:56:33.343Z,95328.97
2023-10-26T06:57:37.416Z,95320.88
2023-10-26T06:58:41.410Z,95327.69
2023-10-26T06:59:43.447Z,95325.63
2023-10-26T07:00:53.069Z,95322.53
2023-10-26T07:02:08.428Z,95320.47
2023-10-26T07:03:13.771Z,95310.56
2023-10-26T07:04:15.925Z,95307.72
2023-10-26T07:05:17.930Z,95301.47
2023-10-26T07:06:20.887Z,95307.94
2023-10-26T07:07:23.055Z,95302.19
2023-10-26T07:08:25.055Z,95309.00
2023-10-26T07:09:27.303Z,95302.72
2023-10-26T07:10:29.488Z,95307.72
2023-10-26T07:11:31.542Z,95312.16
2023-10-26T07:12:36.840Z,95319.19
2023-10-26T07:13:39.855Z,95310.00
2023-10-26T07:14:42.265Z,95312.09
2023-10-26T07:15:44.359Z,95313.59
2023-10-26T07:16:46.369Z,95310.75
2023-10-26T07:17:48.475Z,95314.97
2023-10-26T07:18:50.700Z,95307.91
2023-10-26T07:19:52.805Z,95315.50
2023-10-26T07:20:55.236Z,95311.06
2023-10-26T07:21:57.074Z,95307.66
2023-10-26T07:22:58.989Z,95312.63
2023-10-26T07:24:01.861Z,95301.94
2023-10-26T07:25:04.546Z,95304.31
2023-10-26T07:26:06.499Z,95298.88
2023-10-26T07:27:11.390Z,95303.59
2023-10-26T07:28:13.820Z,95305.94
2023-10-26T07:29:15.589Z,95300.97
2023-10-26T07:30:17.675Z,95304.88
2023-10-26T07:31:21.284Z,95297.59
2023-10-26T07:32:23.499Z,95293.13
2023-10-26T07:33:26.015Z,95300.72
2023-10-26T07:34:28.047Z,95304.91
2023-10-26T07:35:30.282Z,95300.19
2023-10-26T07:36:32.234Z,95297.81
2023-10-26T07:37:34.222Z,95309.78
2023-10-26T07:38:37.604Z,95306.63
2023-10-26T07:39:46.870Z,95315.00
2023-10-26T07:40:54.513Z,95305.88
2023-10-26T07:42:07.783Z,95304.09
2023-10-26T07:43:11.195Z,95305.88
2023-10-26T07:44:13.554Z,95301.47
2023-10-26T07:45:15.420Z,95298.13
2023-10-26T07:46:17.428Z,95300.00
2023-10-26T07:47:19.465Z,95306.13
2023-10-26T07:48:22.127Z,95304.59
2023-10-26T07:49:24.356Z,95300.19
2023-10-26T07:50:26.337Z,95299.75
2023-10-26T07:51:28.330Z,95293.31
2023-10-26T07:52:30.314Z,95298.06
2023-10-26T07:53:32.341Z,95295.53
2023-10-26T07:54:34.565Z,95302.59
2023-10-26T07:55:36.572Z,95298.75
2023-10-26T07:56:40.144Z,95303.75
2023-10-26T07:57:43.601Z,95311.44
2023-10-26T07:58:45.709Z,95304.41
2023-10-26T07:59:47.688Z,95307.88
2023-10-26T08:00:50.181Z,95313.63
2023-10-26T08:01:52.351Z,95320.44
2023-10-26T08:02:54.427Z,95318.38
2023-10-26T08:03:56.280Z,95328.81
2023-10-26T08:04:58.242Z,95330.94
2023-10-26T08:06:02.051Z,95326.78
2023-10-26T08:07:04.399Z,95326.78
2023-10-26T08:08:06.095Z,95318.16
2023-10-26T08:09:08.041Z,95323.63
2023-10-26T08:10:13.405Z,95321.00
2023-10-26T08:11:16.118Z,95323.63
2023-10-26T08:12:18.167Z,95323.88
2023-10-26T08:13:20.155Z,95327.28
2023-10-26T08:14:31.076Z,95326.22
2023-10-26T08:16:11.655Z,95324.69
2023-10-26T08:17:06.452Z,95331.47
2023-10-26T08:18:08.826Z,95328.84
2023-10-26T08:19:10.889Z,95323.38
2023-10-26T08:20:13.689Z,95321.31
2023-10-26T08:21:15.615Z,95320.00
2023-10-26T08:22:17.581Z,95318.72
2023-10-26T08:24:40.146Z,95322.91
2023-10-26T08:25:42.187Z,95330.72
2023-10-26T08:26:44.293Z,95325.75
2023-10-26T08:27:46.734Z,95326.81
2023-10-26T08:28:49.250Z,95323.44
2023-10-26T08:29:52.171Z,95322.41
2023-10-26T08:30:55.694Z,95315.66
2023-10-26T08:31:58.050Z,95317.22
2023-10-26T08:33:01.349Z,95316.97
2023-10-26T08:34:03.858Z,95318.53
2023-10-26T08:35:05.853Z,95323.25
2023-10-26T08:36:08.164Z,95318.81
2023-10-26T08:37:13.589Z,95321.19
2023-10-26T08:38:16.576Z,95314.69
2023-10-26T08:39:19.375Z,95321.00
2023-10-26T08:40:21.954Z,95314.47
2023-10-26T08:41:24.173Z,95308.75
2023-10-26T08:42:26.332Z,95307.44
2023-10-26T08:43:30.549Z,95309.81
2023-10-26T08:44:33.799Z,95312.16
2023-10-26T08:45:37.281Z,95308.25
2023-10-26T08:46:39.936Z,95311.41
2023-10-26T08:47:44.356Z,95315.59
2023-10-26T08:48:49.874Z,95317.97
2023-10-26T08:50:08.048Z,95318.50
2023-10-26T08:51:16.036Z,95325.28
2023-10-26T08:52:18.164Z,95314.56
2023-10-26T08:53:20.269Z,95313.03
2023-10-26T08:54:22.765Z,95301.28
2023-10-26T08:55:24.814Z,95301.53
2023-10-26T08:56:28.420Z,95296.81
2023-10-26T08:57:31.830Z,95295.78
2023-10-26T08:58:35.319Z,95290.56
2023-10-26T08:59:37.760Z,95292.13
2023-10-26T09:00:41.946Z,95286.63
2023-10-26T09:01:50.829Z,95286.91
2023-10-26T09:02:53.070Z,95291.63
2023-10-26T09:03:55.374Z,95289.53
2023-10-26T09:05:05.563Z,95286.91
2023-10-26T09:06:07.591Z,95279.88
2023-10-26T09:07:10.380Z,95282.22
2023-10-26T09:08:18.935Z,95275.16
2023-10-26T09:09:23.264Z,95269.66
2023-10-26T09:10:32.817Z,95266.78
2023-10-26T09:11:34.834Z,95270.72
2023-10-26T09:12:36.831Z,95277.28
2023-10-26T09:13:39.010Z,95277.53
2023-10-26T09:14:40.943Z,95278.56
2023-10-26T09:15:50.638Z,95283.56
2023-10-26T09:16:54.151Z,95280.66
2023-10-26T09:18:01.790Z,95272.28
2023-10-26T09:19:03.894Z,95268.59
2023-10-26T09:20:22.179Z,95271.75
2023-10-26T09:21:24.224Z,95270.19
2023-10-26T09:22:39.539Z,95274.66
2023-10-26T09:23:42.429Z,95276.50
2023-10-26T09:24:44.664Z,95282.53
2023-10-26T09:25:58.771Z,95280.44
2023-10-26T09:27:01.574Z,95287.84
2023-10-26T09:28:06.619Z,95283.91
2023-10-26T09:29:11.008Z,95276.56
2023-10-26T09:30:26.807Z,95276.31
2023-10-26T09:31:28.875Z,95278.16
2023-10-26T09:32:38.617Z,95281.81
2023-10-26T09:33:42.089Z,95270.06
2023-10-26T09:34:49.120Z,95266.63
2023-10-26T09:35:51.051Z,95265.59
2023-10-26T09:37:04.220Z,95264.53
2023-10-26T09:38:06.215Z,95267.97
2023-10-26T09:39:10.994Z,95266.13
2023-10-26T09:40:17.000Z,95265.06
2023-10-26T09:41:20.754Z,95264.56
2023-10-26T09:42:25.092Z,95269.25
2023-10-26T09:43:27.020Z,95266.38
2023-10-26T09:44:31.054Z,95263.50
2023-10-26T09:45:33.427Z,95268.22
2023-10-26T09:46:35.316Z,95277.41
2023-10-26T09:47:38.439Z,95269.28
2023-10-26T09:48:42.472Z,95268.75
2023-10-26T09:49:45.431Z,95261.41
2023-10-26T09:50:50.110Z,95266.41
2023-10-26T09:51:53.186Z,95265.09
2023-10-26T09:52:56.927Z,95265.63
2023-10-26T09:54:04.257Z,95260.38
2023-10-26T09:55:11.942Z,95256.97
2023-10-26T09:56:21.582Z,95257.50
2023-10-26T09:57:36.737Z,95253.53
2023-10-26T09:58:43.047Z,95253.28
2023-10-26T09:59:45.098Z,95255.41
2023-10-26T10:00:47.068Z,95257.25
2023-10-26T10:01:49.188Z,95253.53
2023-10-26T10:03:17.311Z,95250.69
2023-10-26T10:04:38.713Z,95251.97
2023-10-26T10:05:46.138Z,95246.22
2023-10-26T10:06:48.028Z,95246.22
2023-10-26T10:07:50.282Z,95236.50
2023-10-26T10:09:02.569Z,95237.28
2023-10-26T10:10:09.475Z,95240.44
2023-10-26T10:11:19.738Z,95236.78
2023-10-26T10:12:27.521Z,95243.56
2023-10-26T10:13:39.202Z,95239.91
2023-10-26T10:14:50.594Z,95239.91
2023-10-26T10:15:52.692Z,95238.84
2023-10-26T10:16:54.760Z,95239.38
2023-10-26T10:17:59.803Z,95236.75
2023-10-26T10:19:32.191Z,95239.91
2023-10-26T10:20:37.213Z,95243.84
2023-10-26T10:21:39.758Z,95246.22
2023-10-26T10:22:41.823Z,95246.22
2023-10-26T10:23:44.741Z,95257.47
2023-10-26T10:24:54.954Z,95250.38
2023-10-26T10:26:02.373Z,95256.69
2023-10-26T10:27:12.517Z,95254.34
2023-10-26T10:28:14.771Z,95254.84
2023-10-26T10:29:23.046Z,95252.50
2023-10-26T10:30:30.199Z,95249.34
2023-10-26T10:31:41.569Z,95249.06
2023-10-26T10:32:48.139Z,95245.16
2023-10-26T10:34:02.615Z,95249.88
2023-10-26T10:35:08.167Z,95247.25
2023-10-26T10:36:10.338Z,95247.78
2023-10-26T10:37:19.019Z,95241.47
2023-10-26T10:38:22.437Z,95246.19
2023-10-26T10:39:25.030Z,95233.84
2023-10-26T10:40:27.079Z,95229.91
2023-10-26T10:41:29.301Z,95225.19
2023-10-26T10:42:33.768Z,95229.91
2023-10-26T10:43:47.300Z,95217.84
2023-10-26T10:44:51.372Z,95226.75
2023-10-26T10:45:53.359Z,95216.78
2023-10-26T10:46:57.279Z,95215.19
2023-10-26T10:47:59.200Z,95220.44
2023-10-26T10:49:08.129Z,95212.31
2023-10-26T10:50:23.684Z,95207.56
2023-10-26T10:51:45.372Z,95208.06
2023-10-26T10:52:57.648Z,95204.13
2023-10-26T10:54:03.241Z,95197.03
2023-10-26T10:55:09.422Z,95188.59
2023-10-26T10:56:11.622Z,95194.63
2023-10-26T10:57:13.983Z,95190.69
2023-10-26T10:58:16.054Z,95192.81
2023-10-26T10:59:25.036Z,95191.47
2023-10-26T11:00:28.763Z,95192.00
2023-10-26T11:01:31.525Z,95194.09
2023-10-26T11:02:33.772Z,95191.47
2023-10-26T11:03:35.929Z,95193.28
2023-10-26T11:05:08.680Z,95187.50
2023-10-26T11:06:19.862Z,95192.50
2023-10-26T11:07:28.964Z,95197.44
2023-10-26T11:08:39.707Z,95197.44
2023-10-26T11:09:41.766Z,95193.97
2023-10-26T11:10:50.066Z,95192.91
2023-10-26T11:11:52.177Z,95190.53
2023-10-26T11:12:54.174Z,95194.44
2023-10-26T11:14:12.486Z,95195.25
2023-10-26T11:15:14.520Z,95190.00
2023-10-26T11:16:17.825Z,95194.44
2023-10-26T11:17:21.529Z,95190.00
2023-10-26T11:18:23.975Z,95186.31
2023-10-26T11:19:26.004Z,95192.34
2023-10-26T11:20:36.145Z,95191.56
2023-10-26T11:21:38.180Z,95194.97
2023-10-26T11:22:40.196Z,95193.91
2023-10-26T11:23:42.201Z,95196.03
2023-10-26T11:24:45.342Z,95201.28
2023-10-26T11:25:47.617Z,95200.22
2023-10-26T11:27:09.004Z,95209.69
2023-10-26T11:28:11.263Z,95210.19
2023-10-26T11:29:19.291Z,95214.94
2023-10-26T11:30:21.409Z,95219.66
2023-10-26T11:31:49.373Z,95211.78
2023-10-26T11:32:51.668Z,95211.00
2023-10-26T11:33:55.405Z,95211.78
2023-10-26T11:35:10.458Z,95217.56
2023-10-26T11:36:14.364Z,95218.34
2023-10-26T11:37:16.238Z,95217.56
2023-10-26T11:38:18.324Z,95217.28
2023-10-26T11:39:20.265Z,95213.09
2023-10-26T11:40:30.940Z,95203.91
2023-10-26T11:41:34.546Z,95201.03
2023-10-26T11:42:53.628Z,95202.88
2023-10-26T11:43:57.464Z,95204.47
2023-10-26T11:44:59.398Z,95210.78
2023-10-26T11:46:01.595Z,95211.84
2023-10-26T11:47:03.447Z,95201.34
2023-10-26T11:48:05.506Z,95206.34
2023-10-26T11:49:07.712Z,95205.84
2023-10-26T11:50:28.289Z,95218.19
2023-10-26T11:51:30.635Z,95212.16
2023-10-26T11:52:32.490Z,95220.03
2023-10-26T11:53:34.467Z,95214.25
2023-10-26T11:54:36.517Z,95215.03
2023-10-26T11:55:38.496Z,95203.47
2023-10-26T11:56:40.408Z,95208.47
2023-10-26T11:57:43.232Z,95210.56
2023-10-26T11:58:45.386Z,95214.47
2023-10-26T11:59:47.358Z,95217.63
2023-10-26T12:00:49.426Z,95213.66
2023-10-26T12:01:51.378Z,95213.38
2023-10-26T12:03:00.523Z,95219.16
2023-10-26T12:04:02.989Z,95225.19
2023-10-26T12:05:05.405Z,95222.03
2023-10-26T12:06:07.324Z,95221.53
2023-10-26T12:07:09.267Z,95220.50
2023-10-26T12:08:11.659Z,95218.91
2023-10-26T12:09:14.867Z,95222.59
2023-10-26T12:10:19.319Z,95228.91
2023-10-26T12:11:21.538Z,95217.38
2023-10-26T12:12:23.495Z,95222.63
2023-10-26T12:13:25.699Z,95222.88
2023-10-26T12:14:27.906Z,95224.47
2023-10-26T12:15:31.601Z,95228.13
2023-10-26T12:16:33.922Z,95222.09
2023-10-26T12:17:36.936Z,95213.97
2023-10-26T12:18:38.907Z,95203.97
2023-10-26T12:19:40.875Z,95192.41
2023-10-26T12:20:42.777Z,95186.09
2023-10-26T12:21:44.726Z,95176.38
2023-10-26T12:22:50.004Z,95170.06
2023-10-26T12:23:51.951Z,95169.00
2023-10-26T12:24:54.072Z,95161.91
2023-10-26T12:25:56.180Z,95166.38
2023-10-26T12:26:58.487Z,95161.13
2023-10-26T12:28:21.479Z,95161.91
2023-10-26T12:29:23.930Z,95169.25
2023-10-26T12:30:26.638Z,95166.63